Time;durP1;ratioP1;P1;durP2;ratioP2;P2;SDS_P1;SDS_P2;PMS_P1;PMS_P2;Temp;Humidity;BMP_temperature;BMP_pressure;BME280_temperature;BME280_humidity;BME280_pressure;Samples;Min_cycle;Max_cycle;Signal;HPM_P1;HPM_P2
2023/04/15 00:00:03;;;;;;;4.55;2.80;;;6.90;99.90;;;;;;5053613;28;20075;-81
2023/04/15 00:02:30;;;;;;;4.32;2.90;;;6.70;99.90;;;;;;5037320;28;20396;-82
2023/04/15 00:04:55;;;;;;;5.57;2.50;;;6.60;99.90;;;;;;5054501;28;20049;-82
2023/04/15 00:07:21;;;;;;;5.68;2.92;;;6.60;99.90;;;;;;5053574;28;20131;-82
2023/04/15 00:09:46;;;;;;;5.88;2.85;;;6.60;99.90;;;;;;5053210;28;20061;-82
2023/04/15 00:12:12;;;;;;;5.03;2.60;;;6.50;99.90;;;;;;5053295;28;20040;-83
2023/04/15 00:14:38;;;;;;;6.68;2.90;;;6.50;99.90;;;;;;5054518;28;20045;-82
2023/04/15 00:17:04;;;;;;;4.15;2.78;;;6.40;99.90;;;;;;5053529;28;20104;-82
2023/04/15 00:19:30;;;;;;;7.40;3.05;;;6.40;99.90;;;;;;5037064;28;20053;-82
2023/04/15 00:21:56;;;;;;;4.63;2.92;;;6.40;99.90;;;;;;5054434;28;20040;-82
2023/04/15 00:24:22;;;;;;;4.55;3.00;;;6.40;99.90;;;;;;5053215;28;20049;-82
2023/04/15 00:26:48;;;;;;;4.25;2.60;;;6.40;99.90;;;;;;5053558;28;20045;-82
2023/04/15 00:29:14;;;;;;;6.28;3.05;;;6.40;99.90;;;;;;5054673;28;20560;-82
2023/04/15 00:31:41;;;;;;;4.38;3.05;;;6.40;99.90;;;;;;5054135;28;20084;-83
2023/04/15 00:34:07;;;;;;;5.50;2.95;;;6.40;99.90;;;;;;5053162;28;20485;-82
2023/04/15 00:36:33;;;;;;;4.15;2.65;;;6.40;99.90;;;;;;5053755;28;20576;-82
2023/04/15 00:38:59;;;;;;;4.95;2.70;;;6.40;99.90;;;;;;5054046;28;20052;-82
2023/04/15 00:41:25;;;;;;;4.47;2.53;;;6.40;99.90;;;;;;5053519;28;20105;-82
2023/04/15 00:43:51;;;;;;;6.32;3.90;;;6.30;99.90;;;;;;5055770;28;20146;-82
2023/04/15 00:46:20;;;;;;;6.97;3.00;;;6.30;99.90;;;;;;5057229;28;20123;-82
2023/04/15 00:48:46;;;;;;;4.38;2.53;;;6.30;99.90;;;;;;5054728;28;20099;-82
2023/04/15 00:51:13;;;;;;;5.88;2.90;;;6.30;99.90;;;;;;5053234;28;20076;-82
2023/04/15 00:53:39;;;;;;;5.13;2.97;;;6.20;99.90;;;;;;5054097;28;20110;-82
2023/04/15 00:56:06;;;;;;;5.05;2.95;;;6.10;99.90;;;;;;5036324;28;20083;-82
2023/04/15 00:58:31;;;;;;;6.65;3.05;;;6.10;99.90;;;;;;5053780;28;20056;-82
2023/04/15 01:00:57;;;;;;;6.15;3.30;;;6.10;99.90;;;;;;5053687;28;20044;-82
2023/04/15 01:03:24;;;;;;;10.43;3.88;;;6.00;99.90;;;;;;5053744;28;20067;-82
2023/04/15 01:05:56;;;;;;;6.45;3.65;;;6.00;99.90;;;;;;5053745;28;20037;-82
2023/04/15 01:08:26;;;;;;;4.50;3.40;;;6.00;99.90;;;;;;5053479;28;20084;-82
2023/04/15 01:10:53;;;;;;;5.90;3.42;;;6.00;99.90;;;;;;5052874;28;20056;-82
2023/04/15 01:13:20;;;;;;;6.63;3.38;;;5.90;99.90;;;;;;5053511;28;20049;-82
2023/04/15 01:15:46;;;;;;;5.82;3.40;;;5.90;99.90;;;;;;5052771;28;20476;-82
2023/04/15 01:18:12;;;;;;;4.93;3.42;;;5.80;99.90;;;;;;5052181;28;20077;-82
2023/04/15 01:20:38;;;;;;;5.97;3.90;;;5.80;99.90;;;;;;5053146;28;20056;-82
2023/04/15 01:23:05;;;;;;;7.43;3.35;;;5.80;99.90;;;;;;5053358;28;20102;-82
2023/04/15 01:25:32;;;;;;;5.95;3.67;;;5.80;99.90;;;;;;5052148;28;20136;-83
2023/04/15 01:27:58;;;;;;;5.60;3.30;;;5.80;99.90;;;;;;5053335;28;20094;-82
2023/04/15 01:30:25;;;;;;;5.30;3.03;;;5.70;99.90;;;;;;5052286;28;20083;-83
2023/04/15 01:32:51;;;;;;;6.75;3.65;;;5.70;99.90;;;;;;5051939;28;20084;-82
2023/04/15 01:35:17;;;;;;;5.93;3.60;;;5.60;99.90;;;;;;5052249;28;20060;-82
2023/04/15 01:37:43;;;;;;;4.53;3.22;;;5.60;99.90;;;;;;5053116;28;20040;-82
2023/04/15 01:40:08;;;;;;;5.00;3.33;;;5.50;99.90;;;;;;5052280;28;20084;-82
2023/04/15 01:42:35;;;;;;;5.70;3.28;;;5.50;99.90;;;;;;5053135;28;20041;-82
2023/04/15 01:45:01;;;;;;;5.85;3.65;;;5.40;99.90;;;;;;5052106;28;20049;-82
2023/04/15 01:47:27;;;;;;;5.43;3.40;;;5.40;99.90;;;;;;5053349;28;20312;-82
2023/04/15 01:49:52;;;;;;;6.00;3.85;;;5.40;99.90;;;;;;5053065;28;20045;-82
2023/04/15 01:52:18;;;;;;;6.05;3.45;;;5.30;99.90;;;;;;5035300;28;20057;-82
2023/04/15 01:54:44;;;;;;;5.00;3.72;;;5.40;99.90;;;;;;5053139;28;20088;-82
2023/04/15 01:57:10;;;;;;;7.97;3.50;;;5.30;99.90;;;;;;5052366;28;20084;-82
2023/04/15 01:59:36;;;;;;;6.53;3.42;;;5.30;99.90;;;;;;5052810;28;20053;-82
2023/04/15 02:02:01;;;;;;;5.35;3.60;;;5.30;99.90;;;;;;5051934;28;20048;-82
2023/04/15 02:04:27;;;;;;;7.97;3.50;;;5.30;99.90;;;;;;5052930;28;20059;-82
2023/04/15 02:06:53;;;;;;;5.20;3.25;;;5.30;99.90;;;;;;5051842;28;20048;-82
2023/04/15 02:09:19;;;;;;;5.35;3.53;;;5.20;99.90;;;;;;5052964;28;20052;-82
2023/04/15 02:11:44;;;;;;;6.10;3.70;;;5.20;99.90;;;;;;5057150;28;20048;-82
2023/04/15 02:14:10;;;;;;;7.53;3.72;;;5.40;99.90;;;;;;5056036;28;20098;-82
2023/04/15 02:16:36;;;;;;;5.25;3.60;;;5.30;99.90;;;;;;5056557;28;20056;-82
2023/04/15 02:19:02;;;;;;;12.07;4.60;;;5.30;99.90;;;;;;5055730;28;20045;-82
2023/04/15 02:21:29;;;;;;;5.15;3.55;;;5.30;99.90;;;;;;5056575;28;20382;-82
2023/04/15 02:23:54;;;;;;;6.28;3.97;;;5.20;99.90;;;;;;5055725;28;20041;-82
2023/04/15 02:26:21;;;;;;;7.43;3.80;;;5.20;99.90;;;;;;5056601;28;20052;-82
2023/04/15 02:28:48;;;;;;;6.78;4.28;;;5.20;99.90;;;;;;5055615;28;20053;-82
2023/04/15 02:31:13;;;;;;;5.30;3.55;;;5.10;99.90;;;;;;5056472;28;20097;-82
2023/04/15 02:33:39;;;;;;;5.45;3.67;;;5.10;99.90;;;;;;5039044;28;20044;-82
2023/04/15 02:36:06;;;;;;;5.78;3.88;;;5.10;99.90;;;;;;5056241;28;20053;-82
2023/04/15 02:38:32;;;;;;;5.80;3.38;;;5.10;99.90;;;;;;5056525;28;20526;-82
2023/04/15 02:40:58;;;;;;;7.32;4.13;;;5.00;99.90;;;;;;5056238;28;20049;-82
2023/04/15 02:43:24;;;;;;;5.40;3.70;;;5.00;99.90;;;;;;5056263;28;20048;-83
2023/04/15 02:45:50;;;;;;;4.72;3.33;;;5.00;99.90;;;;;;5055574;28;20053;-82
2023/04/15 02:48:18;;;;;;;5.82;4.25;;;5.00;99.90;;;;;;5038722;28;20041;-82
2023/04/15 02:50:45;;;;;;;4.93;3.30;;;5.00;99.90;;;;;;5039641;28;20056;-82
2023/04/15 02:53:12;;;;;;;6.30;4.45;;;4.90;99.90;;;;;;5056074;28;20049;-82
2023/04/15 02:55:37;;;;;;;5.40;3.45;;;4.90;99.90;;;;;;5056878;28;20076;-82
2023/04/15 02:58:03;;;;;;;5.75;3.55;;;5.00;99.90;;;;;;5056508;28;20477;-82
2023/04/15 03:00:29;;;;;;;5.43;3.22;;;4.80;99.90;;;;;;5054732;28;20084;-82
2023/04/15 03:03:01;;;;;;;4.47;3.40;;;4.90;99.90;;;;;;5054643;28;20045;-82
2023/04/15 03:05:27;;;;;;;6.95;4.28;;;4.80;99.90;;;;;;5055250;28;20057;-82
2023/04/15 03:07:53;;;;;;;8.43;4.45;;;4.80;99.90;;;;;;5054464;28;20045;-82
2023/04/15 03:10:19;;;;;;;6.50;4.63;;;4.80;99.90;;;;;;5037869;28;20049;-82
2023/04/15 03:12:45;;;;;;;7.97;4.97;;;4.80;99.90;;;;;;5055261;28;20096;-83
2023/04/15 03:15:11;;;;;;;7.00;4.65;;;5.10;99.90;;;;;;5054739;28;20136;-82
2023/04/15 03:17:37;;;;;;;5.78;4.28;;;4.70;99.90;;;;;;5037745;28;20092;-82
2023/04/15 03:20:04;;;;;;;7.45;4.72;;;4.70;99.90;;;;;;5054862;28;20087;-82
2023/04/15 03:22:33;;;;;;;6.68;4.25;;;4.70;99.90;;;;;;5053814;28;20053;-82
2023/04/15 03:24:58;;;;;;;6.07;3.80;;;4.60;99.90;;;;;;5055949;28;20055;-83
2023/04/15 03:27:25;;;;;;;5.72;4.00;;;4.60;99.90;;;;;;5038293;28;20037;-82
2023/04/15 03:29:50;;;;;;;7.40;4.97;;;4.60;99.90;;;;;;5054414;28;20037;-82
2023/04/15 03:32:16;;;;;;;6.43;3.92;;;4.50;99.90;;;;;;5054842;28;20531;-82
2023/04/15 03:34:42;;;;;;;7.47;5.00;;;4.50;99.90;;;;;;5037668;28;20052;-82
2023/04/15 03:37:08;;;;;;;7.65;5.13;;;4.50;99.90;;;;;;5055149;28;20053;-82
2023/04/15 03:39:34;;;;;;;6.90;3.88;;;4.50;99.90;;;;;;5055176;28;20135;-82
2023/04/15 03:42:00;;;;;;;6.78;3.80;;;4.40;99.90;;;;;;5038431;28;20071;-82
2023/04/15 03:44:26;;;;;;;6.75;4.45;;;4.50;99.90;;;;;;5038078;28;20476;-82
2023/04/15 03:46:53;;;;;;;6.00;4.07;;;4.30;99.90;;;;;;5055043;28;20045;-82
2023/04/15 03:49:19;;;;;;;7.00;5.03;;;4.40;99.90;;;;;;5054140;28;20123;-82
2023/04/15 03:51:45;;;;;;;10.23;5.07;;;4.30;99.90;;;;;;5053864;28;20397;-82
2023/04/15 03:54:13;;;;;;;5.57;4.13;;;4.30;99.90;;;;;;5055029;28;20045;-83
2023/04/15 03:56:38;;;;;;;7.40;4.70;;;4.60;99.90;;;;;;5053969;28;20428;-82
2023/04/15 03:59:04;;;;;;;6.55;4.10;;;4.30;99.90;;;;;;5053972;28;20051;-82
2023/04/15 04:01:30;;;;;;;7.20;4.20;;;4.30;99.90;;;;;;5053846;28;20092;-82
2023/04/15 04:03:56;;;;;;;6.25;4.10;;;4.30;99.90;;;;;;5053804;28;20055;-83
2023/04/15 04:06:21;;;;;;;7.18;4.95;;;4.30;99.90;;;;;;5055173;28;20420;-82
2023/04/15 04:08:47;;;;;;;7.68;4.82;;;4.20;99.90;;;;;;5053894;28;20056;-82
2023/04/15 04:11:13;;;;;;;6.63;4.85;;;4.40;99.90;;;;;;5054800;28;20052;-82
2023/04/15 04:13:39;;;;;;;7.80;5.30;;;4.10;99.90;;;;;;5053809;28;20057;-83
2023/04/15 04:16:05;;;;;;;6.55;4.55;;;4.50;99.90;;;;;;5054347;28;20144;-83
2023/04/15 04:18:31;;;;;;;7.47;5.20;;;4.20;99.90;;;;;;5053580;28;20179;-82
2023/04/15 04:20:57;;;;;;;7.35;5.07;;;4.20;99.90;;;;;;5054377;28;20498;-82
2023/04/15 04:23:23;;;;;;;8.60;5.18;;;4.30;99.90;;;;;;5053460;28;20052;-82
2023/04/15 04:25:48;;;;;;;8.95;5.13;;;4.60;99.90;;;;;;5053428;28;20122;-82
2023/04/15 04:28:14;;;;;;;9.68;5.60;;;4.10;99.90;;;;;;5053951;28;20052;-82
2023/04/15 04:30:40;;;;;;;7.78;4.97;;;4.20;99.90;;;;;;5054749;28;20131;-82
2023/04/15 04:33:08;;;;;;;8.10;5.20;;;4.10;99.90;;;;;;5053043;28;20400;-82
2023/04/15 04:35:36;;;;;;;8.02;5.88;;;4.30;99.90;;;;;;5053112;28;20067;-82
2023/04/15 04:38:02;;;;;;;8.35;5.43;;;4.20;99.90;;;;;;5036883;28;20420;-82
2023/04/15 04:40:28;;;;;;;8.18;6.05;;;4.20;99.90;;;;;;5053367;28;20045;-83
2023/04/15 04:42:54;;;;;;;8.00;5.25;;;4.50;99.90;;;;;;5053894;28;20045;-82
2023/04/15 04:45:20;;;;;;;9.98;6.28;;;4.20;99.90;;;;;;5053004;28;20040;-82
2023/04/15 04:47:46;;;;;;;10.10;5.70;;;4.40;99.90;;;;;;5052904;28;20060;-82
2023/04/15 04:50:12;;;;;;;10.35;5.82;;;4.30;99.90;;;;;;5053055;28;20041;-82
2023/04/15 04:52:38;;;;;;;8.55;5.28;;;4.30;99.90;;;;;;5052800;28;20351;-82
2023/04/15 04:55:04;;;;;;;8.93;5.93;;;4.40;99.90;;;;;;5052910;28;20134;-82
2023/04/15 04:57:30;;;;;;;9.35;6.05;;;4.30;99.90;;;;;;5052500;28;20056;-82
2023/04/15 04:59:56;;;;;;;9.57;5.80;;;4.50;99.90;;;;;;5053490;28;20041;-82
2023/04/15 05:02:22;;;;;;;9.10;5.88;;;4.50;99.90;;;;;;5053698;28;20470;-82
2023/04/15 05:04:49;;;;;;;8.95;6.35;;;4.50;99.90;;;;;;5036063;28;20071;-82
2023/04/15 05:07:14;;;;;;;10.52;6.07;;;4.50;99.90;;;;;;5055582;28;20395;-82
2023/04/15 05:09:40;;;;;;;8.65;5.95;;;4.50;99.90;;;;;;5056325;28;20061;-82
2023/04/15 05:12:07;;;;;;;10.48;6.63;;;4.50;99.90;;;;;;5037269;28;20075;-82
2023/04/15 05:14:33;;;;;;;10.25;6.60;;;4.60;99.90;;;;;;5054129;28;20391;-83
2023/04/15 05:16:59;;;;;;;9.85;6.30;;;4.60;99.90;;;;;;5036900;28;20079;-83
2023/04/15 05:19:25;;;;;;;12.38;7.15;;;4.60;99.90;;;;;;5054051;28;20052;-83
2023/04/15 05:21:50;;;;;;;11.80;7.35;;;4.60;99.90;;;;;;5053435;28;20047;-83
2023/04/15 05:24:17;;;;;;;9.32;6.35;;;4.50;99.90;;;;;;5053237;28;20139;-82
2023/04/15 05:26:42;;;;;;;10.80;6.78;;;4.60;99.90;;;;;;5053400;28;20056;-83
2023/04/15 05:29:08;;;;;;;13.30;7.75;;;4.60;99.90;;;;;;5052402;28;20045;-82
2023/04/15 05:31:34;;;;;;;10.60;7.03;;;4.60;99.90;;;;;;5051889;28;20044;-82
2023/04/15 05:34:00;;;;;;;13.13;7.40;;;4.70;99.90;;;;;;5052414;28;20084;-82
2023/04/15 05:36:27;;;;;;;10.43;6.70;;;4.70;99.90;;;;;;5035603;28;20052;-82
2023/04/15 05:38:53;;;;;;;9.82;6.50;;;4.70;99.90;;;;;;5053045;28;20520;-82
2023/04/15 05:41:18;;;;;;;12.25;6.85;;;4.90;99.90;;;;;;5052253;28;20045;-82
2023/04/15 05:43:44;;;;;;;11.55;7.22;;;4.80;99.90;;;;;;5052150;28;20049;-83
2023/04/15 05:46:10;;;;;;;12.18;7.18;;;4.80;99.90;;;;;;5052167;28;20052;-81
2023/04/15 05:48:35;;;;;;;10.98;7.45;;;4.90;99.90;;;;;;5053230;28;20048;-77
2023/04/15 05:51:01;;;;;;;10.23;6.75;;;5.00;99.90;;;;;;5053410;28;20053;-74
2023/04/15 05:53:27;;;;;;;10.30;7.20;;;5.10;99.90;;;;;;5053691;28;20462;-74
2023/04/15 05:55:53;;;;;;;11.88;7.45;;;5.00;99.90;;;;;;5053109;28;20103;-73
2023/04/15 05:58:18;;;;;;;10.52;6.35;;;5.00;99.90;;;;;;5053177;28;20059;-74
2023/04/15 06:00:45;;;;;;;11.68;7.63;;;5.10;99.90;;;;;;5053105;28;20052;-73
2023/04/15 06:03:10;;;;;;;12.98;7.47;;;5.10;99.90;;;;;;5053834;28;20041;-74
2023/04/15 06:05:36;;;;;;;10.82;7.30;;;5.10;99.90;;;;;;5053098;28;20051;-74
2023/04/15 06:08:02;;;;;;;11.80;7.20;;;5.40;99.90;;;;;;5052958;28;20393;-74
2023/04/15 06:10:28;;;;;;;12.23;7.65;;;5.30;99.90;;;;;;5053193;28;20436;-74
2023/04/15 06:12:53;;;;;;;11.90;7.40;;;5.40;99.90;;;;;;5052943;28;20469;-73
2023/04/15 06:15:19;;;;;;;10.38;7.28;;;5.50;99.90;;;;;;5053515;28;20056;-74
2023/04/15 06:17:45;;;;;;;12.32;7.65;;;5.50;99.90;;;;;;5052883;28;20401;-75
2023/04/15 06:20:11;;;;;;;11.35;7.25;;;5.60;99.90;;;;;;5052930;28;20106;-74
2023/04/15 06:22:38;;;;;;;11.18;7.10;;;5.70;99.90;;;;;;5052917;28;20048;-74
2023/04/15 06:25:04;;;;;;;10.90;6.90;;;5.80;99.90;;;;;;5052291;28;20508;-74
2023/04/15 06:27:30;;;;;;;10.30;6.97;;;5.90;99.90;;;;;;5052843;28;20044;-74
2023/04/15 06:29:55;;;;;;;11.05;7.25;;;6.00;99.90;;;;;;5052971;28;20072;-74
2023/04/15 06:32:21;;;;;;;11.50;7.20;;;6.10;99.90;;;;;;5052635;28;20045;-75
2023/04/15 06:34:47;;;;;;;10.70;6.72;;;6.20;99.90;;;;;;5053356;28;20088;-75
2023/04/15 06:37:15;;;;;;;11.15;7.20;;;6.30;99.90;;;;;;5052294;28;20049;-75
2023/04/15 06:39:41;;;;;;;12.07;7.13;;;6.30;99.90;;;;;;5053184;28;20056;-75
2023/04/15 06:42:08;;;;;;;10.73;6.95;;;6.40;99.90;;;;;;5052634;28;20044;-72
2023/04/15 06:44:33;;;;;;;10.40;6.68;;;6.50;99.90;;;;;;5052661;28;20049;-75
2023/04/15 06:47:00;;;;;;;11.25;6.82;;;6.50;99.90;;;;;;5053205;28;20441;-76
2023/04/15 06:49:25;;;;;;;10.07;6.80;;;6.60;99.90;;;;;;5052789;28;20045;-76
2023/04/15 06:51:51;;;;;;;11.20;6.78;;;6.70;99.90;;;;;;5052476;28;20493;-75
2023/04/15 06:54:17;;;;;;;10.88;6.85;;;6.80;99.90;;;;;;5052594;28;20060;-74
2023/04/15 06:56:43;;;;;;;10.15;6.68;;;6.80;99.90;;;;;;5053386;28;20108;-74
2023/04/15 06:59:09;;;;;;;10.57;6.57;;;6.90;99.90;;;;;;5056266;28;20080;-74
2023/04/15 07:01:34;;;;;;;9.75;6.82;;;6.90;99.90;;;;;;5055771;28;20047;-75
2023/04/15 07:04:00;;;;;;;9.35;6.15;;;6.90;99.90;;;;;;5055943;28;20037;-77
2023/04/15 07:06:26;;;;;;;11.88;6.65;;;7.10;99.90;;;;;;5055868;28;20146;-76
2023/04/15 07:08:53;;;;;;;10.80;6.40;;;7.10;99.90;;;;;;5055856;28;20063;-78
2023/04/15 07:11:19;;;;;;;9.60;5.95;;;7.20;99.90;;;;;;5055553;28;20190;-79
2023/04/15 07:13:45;;;;;;;10.20;5.45;;;7.30;99.90;;;;;;5055618;28;20086;-78
2023/04/15 07:16:11;;;;;;;7.68;5.25;;;7.40;99.90;;;;;;5055485;28;20045;-76
2023/04/15 07:18:37;;;;;;;7.15;4.65;;;7.50;99.90;;;;;;5054108;28;20083;-77
2023/04/15 07:21:02;;;;;;;7.35;5.07;;;7.50;99.90;;;;;;5054499;28;20045;-79
2023/04/15 07:23:28;;;;;;;7.07;4.60;;;7.70;99.90;;;;;;5055529;28;20060;-76
2023/04/15 07:25:54;;;;;;;7.80;4.60;;;7.80;99.90;;;;;;5055632;28;20485;-76
2023/04/15 07:28:20;;;;;;;6.40;4.07;;;7.90;99.90;;;;;;5055501;28;20131;-77
2023/04/15 07:30:45;;;;;;;6.10;4.00;;;7.90;99.90;;;;;;5056166;28;20388;-76
2023/04/15 07:33:11;;;;;;;7.38;4.80;;;8.00;99.90;;;;;;5055373;28;20132;-76
2023/04/15 07:35:37;;;;;;;8.02;4.35;;;8.10;99.90;;;;;;5055024;28;20056;-76
2023/04/15 07:38:02;;;;;;;7.20;4.28;;;8.10;99.90;;;;;;5055522;28;20048;-77
2023/04/15 07:40:28;;;;;;;6.60;4.70;;;8.10;99.90;;;;;;5055066;28;20106;-76
2023/04/15 07:42:57;;;;;;;6.32;4.13;;;8.20;99.90;;;;;;5055676;28;20041;-74
2023/04/15 07:45:23;;;;;;;6.85;4.28;;;8.20;99.90;;;;;;5055225;28;20072;-76
2023/04/15 07:47:50;;;;;;;8.25;4.25;;;8.30;99.90;;;;;;5055086;28;20494;-74
2023/04/15 07:50:16;;;;;;;6.55;4.75;;;8.40;99.90;;;;;;5054266;28;20076;-74
2023/04/15 07:52:42;;;;;;;6.45;4.13;;;8.50;99.90;;;;;;5055504;28;20041;-74
2023/04/15 07:55:09;;;;;;;7.25;4.45;;;8.60;99.90;;;;;;5054957;28;20484;-74
2023/04/15 07:57:36;;;;;;;7.72;4.72;;;8.70;99.90;;;;;;5054996;28;20048;-76
2023/04/15 08:00:05;;;;;;;8.02;3.83;;;8.80;99.90;;;;;;5054864;28;20072;-74
2023/04/15 08:02:31;;;;;;;5.78;4.00;;;8.90;99.90;;;;;;5055335;28;20033;-81
2023/04/15 08:04:57;;;;;;;6.25;4.22;;;9.00;99.90;;;;;;5054990;28;20108;-75
2023/04/15 08:07:24;;;;;;;6.40;4.13;;;9.10;99.90;;;;;;5054957;28;20049;-78
2023/04/15 08:09:50;;;;;;;6.28;4.07;;;9.10;99.90;;;;;;5054807;28;20065;-78
2023/04/15 08:12:16;;;;;;;5.53;3.85;;;9.20;99.90;;;;;;5055116;28;20044;-80
2023/04/15 08:14:41;;;;;;;6.78;4.15;;;9.20;99.90;;;;;;5037790;28;20065;-79
2023/04/15 08:17:07;;;;;;;6.57;3.97;;;9.20;99.90;;;;;;5053853;28;20132;-75
2023/04/15 08:19:33;;;;;;;5.57;3.75;;;9.30;99.90;;;;;;5054777;28;20044;-81
2023/04/15 08:21:59;;;;;;;4.75;3.13;;;9.30;99.90;;;;;;5037724;28;20480;-74
2023/04/15 08:24:25;;;;;;;4.90;2.95;;;9.40;99.90;;;;;;5054668;28;20048;-75
2023/04/15 08:26:51;;;;;;;4.30;3.03;;;9.40;99.90;;;;;;5054649;28;20474;-75
2023/04/15 08:29:17;;;;;;;5.43;3.30;;;9.40;99.90;;;;;;5054369;28;20052;-77
2023/04/15 08:31:43;;;;;;;4.82;3.15;;;9.50;99.90;;;;;;5036765;28;20041;-77
2023/04/15 08:34:13;;;;;;;4.15;2.90;;;9.60;99.90;;;;;;5054243;28;20477;-79
2023/04/15 08:36:40;;;;;;;3.38;2.25;;;9.60;99.90;;;;;;5053578;28;20044;-77
2023/04/15 08:39:05;;;;;;;5.00;2.85;;;9.70;99.90;;;;;;5054063;28;20045;-76
2023/04/15 08:41:46;;;;;;;4.15;2.90;;;9.80;99.90;;;;;;5053447;28;20033;-78
2023/04/15 08:44:13;;;;;;;3.95;2.45;;;9.90;99.90;;;;;;5053393;28;20045;-79
2023/04/15 08:46:41;;;;;;;5.55;2.75;;;9.90;99.90;;;;;;5053762;28;20102;-79
2023/04/15 08:49:10;;;;;;;4.47;2.78;;;10.00;99.90;;;;;;5053661;28;20515;-80
2023/04/15 08:51:37;;;;;;;3.72;2.78;;;10.00;99.90;;;;;;5053366;28;20528;-80
2023/04/15 08:54:03;;;;;;;5.63;2.70;;;9.90;99.90;;;;;;5037054;28;20053;-77
2023/04/15 08:56:31;;;;;;;6.53;2.80;;;9.80;99.90;;;;;;5053875;28;20056;-78
2023/04/15 08:58:58;;;;;;;3.80;2.38;;;9.70;99.90;;;;;;5053818;28;20048;-77
2023/04/15 09:01:25;;;;;;;3.13;2.13;;;9.60;99.90;;;;;;5052758;28;20059;-76
2023/04/15 09:03:53;;;;;;;5.18;2.90;;;9.50;99.90;;;;;;5053717;28;20052;-76
2023/04/15 09:06:20;;;;;;;3.75;2.50;;;9.50;99.90;;;;;;5053912;28;20076;-76
2023/04/15 09:08:46;;;;;;;4.43;2.20;;;9.60;99.90;;;;;;5053151;28;20543;-77
2023/04/15 09:11:12;;;;;;;4.18;2.53;;;9.60;99.90;;;;;;5054355;28;20099;-76
2023/04/15 09:13:38;;;;;;;6.28;2.67;;;9.70;99.90;;;;;;5053567;28;20044;-76
2023/04/15 09:16:05;;;;;;;5.63;2.47;;;9.70;99.90;;;;;;5053941;28;20367;-80
2023/04/15 09:18:33;;;;;;;4.85;2.28;;;9.70;99.90;;;;;;5053742;28;20053;-81
2023/04/15 09:21:07;;;;;;;4.50;2.45;;;9.60;99.90;;;;;;5051476;28;20049;-80
2023/04/15 09:23:34;;;;;;;3.58;2.25;;;9.60;99.90;;;;;;5054090;28;20050;-78
2023/04/15 09:26:01;;;;;;;3.70;2.53;;;9.60;99.90;;;;;;5052259;28;20045;-80
2023/04/15 09:28:27;;;;;;;4.63;2.55;;;9.50;99.90;;;;;;5053288;28;20041;-79
2023/04/15 09:30:58;;;;;;;3.60;2.30;;;9.50;99.90;;;;;;5053973;28;20091;-80
2023/04/15 09:33:26;;;;;;;4.07;2.35;;;9.60;99.90;;;;;;5052426;28;20127;-79
2023/04/15 09:36:00;;;;;;;3.17;2.25;;;9.70;99.90;;;;;;5054633;28;20392;-80
2023/04/15 09:38:26;;;;;;;4.05;2.10;;;9.90;99.90;;;;;;5054882;28;20053;-80
2023/04/15 09:40:52;;;;;;;3.05;2.00;;;10.10;99.90;;;;;;5055759;28;20045;-80
2023/04/15 09:43:18;;;;;;;4.68;2.20;;;10.20;99.90;;;;;;5053766;28;20052;-79
2023/04/15 09:45:52;;;;;;;4.18;2.17;;;10.30;99.90;;;;;;5054376;28;20088;-79
2023/04/15 09:48:20;;;;;;;3.38;1.92;;;10.40;99.90;;;;;;5054121;28;20081;-79
2023/04/15 09:50:49;;;;;;;4.03;2.05;;;10.30;99.90;;;;;;5053709;28;20071;-80
2023/04/15 09:53:23;;;;;;;3.58;1.90;;;10.20;99.90;;;;;;5053117;28;20037;-80
2023/04/15 09:55:50;;;;;;;2.95;1.92;;;10.10;99.90;;;;;;5053615;28;20056;-80
2023/04/15 09:58:24;;;;;;;3.00;1.70;;;10.10;99.90;;;;;;5052996;28;20052;-80
2023/04/15 10:00:52;;;;;;;2.85;2.10;;;10.00;99.90;;;;;;5051345;28;20044;-77
2023/04/15 10:03:21;;;;;;;2.83;1.90;;;10.00;99.90;;;;;;5053033;28;20144;-76
2023/04/15 10:05:49;;;;;;;3.92;2.00;;;9.90;99.90;;;;;;5053773;28;20045;-74
2023/04/15 10:08:20;;;;;;;3.20;1.90;;;9.80;99.90;;;;;;5052938;28;20397;-75
2023/04/15 10:10:47;;;;;;;3.20;1.55;;;9.70;99.90;;;;;;5051015;28;20537;-76
2023/04/15 10:13:16;;;;;;;2.80;1.67;;;9.70;99.90;;;;;;5053281;28;20045;-74
2023/04/15 10:15:45;;;;;;;3.75;2.00;;;9.70;99.90;;;;;;5052754;28;20385;-75
2023/04/15 10:18:14;;;;;;;3.75;1.50;;;9.70;99.90;;;;;;5052785;28;20496;-78
2023/04/15 10:20:41;;;;;;;4.28;2.05;;;9.70;99.90;;;;;;5052097;28;20091;-74
2023/04/15 10:23:08;;;;;;;2.88;1.77;;;9.80;99.90;;;;;;5052830;28;20045;-75
2023/04/15 10:25:35;;;;;;;3.28;1.83;;;9.80;99.90;;;;;;5053023;28;20049;-75
2023/04/15 10:28:01;;;;;;;3.65;1.80;;;9.90;99.90;;;;;;5053588;28;20076;-74
2023/04/15 10:30:27;;;;;;;4.00;1.58;;;9.90;99.90;;;;;;5052856;28;20052;-76
2023/04/15 10:32:54;;;;;;;3.92;1.73;;;9.80;99.90;;;;;;5056411;28;20063;-76
2023/04/15 10:35:21;;;;;;;2.60;1.50;;;9.90;99.90;;;;;;5056537;28;20049;-75
2023/04/15 10:37:47;;;;;;;2.47;1.55;;;9.90;99.90;;;;;;5056329;28;20048;-76
2023/04/15 10:40:28;;;;;;;2.83;1.65;;;9.90;99.90;;;;;;5057259;28;20102;-76
2023/04/15 10:43:02;;;;;;;4.07;2.28;;;9.90;99.90;;;;;;5056357;28;20072;-78
2023/04/15 10:45:35;;;;;;;3.20;1.77;;;9.90;99.90;;;;;;5055957;28;20106;-79
2023/04/15 10:48:03;;;;;;;3.40;1.95;;;9.90;99.90;;;;;;5056238;28;20040;-78
2023/04/15 10:50:31;;;;;;;3.50;2.15;;;10.00;99.90;;;;;;5056296;28;20064;-79
2023/04/15 10:52:57;;;;;;;2.92;1.63;;;10.00;99.90;;;;;;5055699;28;20045;-77
2023/04/15 10:55:30;;;;;;;3.75;1.67;;;10.00;99.90;;;;;;5054977;28;20049;-77
2023/04/15 10:58:00;;;;;;;3.00;1.80;;;10.00;99.90;;;;;;5055969;28;20088;-79
2023/04/15 11:00:29;;;;;;;2.63;1.88;;;9.90;99.90;;;;;;5056249;28;20053;-77
2023/04/15 11:03:04;;;;;;;2.80;1.80;;;9.90;99.90;;;;;;5056093;28;20056;-78
2023/04/15 11:05:45;;;;;;;4.50;2.03;;;9.80;99.90;;;;;;5055231;28;20041;-78
2023/04/15 11:08:12;;;;;;;3.47;1.70;;;9.80;99.90;;;;;;5055812;28;20132;-74
2023/04/15 11:10:38;;;;;;;2.90;1.65;;;9.80;99.90;;;;;;5056080;28;20136;-79
2023/04/15 11:13:14;;;;;;;2.67;1.52;;;9.80;99.90;;;;;;5054639;28;20041;-78
2023/04/15 11:15:44;;;;;;;3.13;1.75;;;9.90;99.90;;;;;;5056052;28;20045;-78
2023/04/15 11:18:22;;;;;;;2.97;1.45;;;10.00;99.90;;;;;;5055041;28;20096;-78
2023/04/15 11:20:53;;;;;;;2.75;1.60;;;10.00;99.90;;;;;;5055451;28;20064;-78
2023/04/15 11:23:27;;;;;;;2.40;1.40;;;9.90;99.90;;;;;;5055707;28;20041;-79
2023/04/15 11:25:56;;;;;;;2.92;1.42;;;9.80;99.90;;;;;;5056365;28;20048;-80
2023/04/15 11:28:28;;;;;;;2.05;1.10;;;9.80;99.90;;;;;;5054575;28;20208;-79
2023/04/15 11:30:54;;;;;;;3.00;1.30;;;9.80;99.90;;;;;;5056852;28;20099;-78
2023/04/15 11:33:21;;;;;;;2.63;1.50;;;9.80;99.90;;;;;;5054399;28;20091;-78
2023/04/15 11:35:47;;;;;;;2.78;1.42;;;9.80;99.90;;;;;;5055467;28;20436;-77
2023/04/15 11:38:14;;;;;;;4.40;1.40;;;9.80;99.90;;;;;;5054644;28;20045;-79
2023/04/15 11:40:41;;;;;;;2.50;1.40;;;9.90;99.90;;;;;;5054222;28;20045;-78
2023/04/15 11:43:09;;;;;;;3.40;1.40;;;9.90;99.90;;;;;;5053744;28;20052;-80
2023/04/15 11:45:36;;;;;;;3.20;1.45;;;9.90;99.90;;;;;;5054970;28;20053;-79
2023/04/15 11:48:10;;;;;;;2.35;1.42;;;9.90;99.90;;;;;;5054039;28;20049;-79
2023/04/15 11:50:39;;;;;;;3.83;1.40;;;10.00;99.90;;;;;;5054131;28;20088;-79
2023/04/15 11:53:09;;;;;;;3.75;1.77;;;10.00;99.90;;;;;;5053487;28;20049;-78
2023/04/15 11:55:43;;;;;;;3.03;1.50;;;10.00;99.90;;;;;;5055359;28;20052;-78
2023/04/15 11:58:11;;;;;;;2.45;1.50;;;10.00;99.90;;;;;;5054936;28;20099;-77
2023/04/15 12:00:38;;;;;;;2.03;1.40;;;10.00;99.90;;;;;;5054963;28;20384;-78
2023/04/15 12:03:18;;;;;;;6.07;1.77;;;10.00;99.90;;;;;;5055720;28;20060;-79
2023/04/15 12:06:06;;;;;;;3.28;1.30;;;10.10;99.90;;;;;;5054563;28;20519;-77
2023/04/15 12:08:54;;;;;;;4.45;1.70;;;10.10;99.90;;;;;;5055222;28;20044;-76
2023/04/15 12:11:30;;;;;;;2.40;1.50;;;10.00;99.90;;;;;;5054570;28;20127;-77
2023/04/15 12:14:05;;;;;;;4.35;1.48;;;10.00;99.90;;;;;;5054632;28;20445;-76
2023/04/15 12:16:32;;;;;;;3.58;1.40;;;10.10;99.90;;;;;;5055040;28;20055;-78
2023/04/15 12:18:59;;;;;;;3.60;1.70;;;10.10;99.90;;;;;;5055103;28;20079;-76
2023/04/15 12:21:28;;;;;;;2.83;1.50;;;10.20;99.90;;;;;;5054780;28;20093;-75
2023/04/15 12:23:55;;;;;;;3.45;1.75;;;10.30;99.90;;;;;;5054483;28;20053;-78
2023/04/15 12:26:48;;;;;;;3.70;1.70;;;10.30;99.90;;;;;;5054462;28;20122;-78
2023/04/15 12:29:16;;;;;;;4.35;2.00;;;10.20;99.90;;;;;;5048707;28;20061;-74
2023/04/15 12:31:53;;;;;;;5.50;1.77;;;10.10;99.90;;;;;;5054823;28;20041;-74
2023/04/15 12:34:37;;;;;;;6.70;1.70;;;10.00;99.90;;;;;;5054062;28;20045;-80
2023/04/15 12:37:04;;;;;;;2.13;1.10;;;10.00;99.90;;;;;;5054739;28;20119;-77
2023/04/15 12:39:41;;;;;;;2.50;1.55;;;10.00;99.90;;;;;;5053174;28;20041;-78
2023/04/15 12:42:07;;;;;;;3.45;1.50;;;10.00;99.90;;;;;;5053297;28;20044;-81
2023/04/15 12:44:35;;;;;;;4.28;2.05;;;10.00;99.90;;;;;;5053366;28;20462;-80
2023/04/15 12:47:00;;;;;;;4.25;1.67;;;9.90;99.90;;;;;;5054030;28;20055;-80
2023/04/15 12:49:26;;;;;;;4.72;1.85;;;9.80;99.90;;;;;;5053988;28;20044;-74
2023/04/15 12:51:54;;;;;;;6.18;2.60;;;9.70;99.90;;;;;;5053937;28;20048;-81